Time;durP1;ratioP1;P1;durP2;ratioP2;P2;SDS_P1;SDS_P2;PMS_P1;PMS_P2;Temp;Humidity;BMP_temperature;BMP_pressure;BME280_temperature;BME280_humidity;BME280_pressure;Samples;Min_cycle;Max_cycle;Signal;HPM_P1;HPM_P2
2022/12/12 00:02:16;;;;;;;23.05;12.45;;;-0.80;99.90;;;;;;5075140;28;20030;-80
2022/12/12 00:04:42;;;;;;;19.50;10.48;;;0.70;99.90;;;;;;5074395;28;20456;-81
2022/12/12 00:07:07;;;;;;;19.80;10.88;;;0.20;99.90;;;;;;5074724;28;20047;-80
2022/12/12 00:09:33;;;;;;;19.20;10.68;;;0.60;99.90;;;;;;5076183;28;20025;-80
2022/12/12 00:11:58;;;;;;;19.58;10.38;;;-0.40;99.90;;;;;;5074017;28;20032;-80
2022/12/12 00:14:24;;;;;;;19.45;10.57;;;-0.60;99.90;;;;;;5075494;28;20103;-81
2022/12/12 00:16:50;;;;;;;20.27;10.60;;;-0.70;99.90;;;;;;5073720;28;20444;-81
2022/12/12 00:19:15;;;;;;;18.88;9.68;;;-0.80;99.90;;;;;;5073642;28;20033;-80
2022/12/12 00:21:41;;;;;;;17.25;10.57;;;-0.60;99.90;;;;;;5090390;28;20051;-81
2022/12/12 00:24:07;;;;;;;18.30;10.07;;;-0.60;99.90;;;;;;5075454;28;20085;-81
2022/12/12 00:26:34;;;;;;;20.20;11.45;;;-0.90;99.90;;;;;;5079343;28;20033;-80
2022/12/12 00:29:02;;;;;;;20.88;10.63;;;-0.40;99.90;;;;;;5079129;28;20033;-80
2022/12/12 00:31:28;;;;;;;18.90;10.23;;;-0.90;99.90;;;;;;5078089;28;20354;-79
2022/12/12 00:33:54;;;;;;;17.98;9.52;;;-0.90;99.90;;;;;;5079112;28;20032;-80
2022/12/12 00:36:25;;;;;;;19.15;10.02;;;-0.90;99.90;;;;;;5076809;28;20427;-80
2022/12/12 00:38:51;;;;;;;20.15;10.65;;;-0.20;99.90;;;;;;5077368;28;20078;-79
2022/12/12 00:41:18;;;;;;;19.98;10.07;;;-1.00;99.90;;;;;;5078447;28;20024;-80
2022/12/12 00:43:43;;;;;;;17.40;9.13;;;-0.20;99.90;;;;;;5076848;28;20079;-80
2022/12/12 00:46:17;;;;;;;20.27;10.55;;;0.60;99.90;;;;;;5077010;28;20021;-79
2022/12/12 00:48:43;;;;;;;18.15;9.55;;;1.00;99.90;;;;;;5076908;28;20071;-80
2022/12/12 00:51:12;;;;;;;15.90;9.60;;;-0.10;99.90;;;;;;5076783;28;20020;-79
2022/12/12 00:53:38;;;;;;;17.60;9.30;;;-0.30;99.90;;;;;;5077951;28;20033;-79
2022/12/12 00:56:04;;;;;;;17.63;10.13;;;-1.10;99.90;;;;;;5077429;28;20046;-79
2022/12/12 00:58:31;;;;;;;17.83;9.50;;;-1.10;99.90;;;;;;5077045;28;20060;-79
2022/12/12 01:01:05;;;;;;;18.00;9.27;;;-0.10;99.90;;;;;;5076105;28;20020;-79
2022/12/12 01:03:35;;;;;;;20.55;9.90;;;-0.60;99.90;;;;;;5078095;28;20353;-79
2022/12/12 01:06:02;;;;;;;16.92;9.63;;;0.20;99.90;;;;;;5093240;28;20025;-78
2022/12/12 01:08:28;;;;;;;16.17;9.60;;;-1.20;99.90;;;;;;5076128;28;20249;-79
2022/12/12 01:10:53;;;;;;;17.55;9.63;;;0.10;99.90;;;;;;5077263;28;20035;-79
2022/12/12 01:13:19;;;;;;;15.55;9.05;;;-0.30;99.90;;;;;;5077466;28;20384;-78
2022/12/12 01:15:45;;;;;;;17.05;9.13;;;0.30;99.90;;;;;;5077514;28;20032;-78
2022/12/12 01:18:11;;;;;;;18.42;9.05;;;-1.30;99.90;;;;;;5075734;28;20060;-78
2022/12/12 01:20:36;;;;;;;17.33;8.50;;;0.50;99.90;;;;;;5076156;28;20102;-78
2022/12/12 01:23:02;;;;;;;17.30;8.70;;;-1.40;99.90;;;;;;5077115;28;20029;-78
2022/12/12 01:25:28;;;;;;;15.68;8.95;;;-0.70;99.90;;;;;;5077264;28;20060;-78
2022/12/12 01:27:53;;;;;;;20.55;9.55;;;-1.20;99.90;;;;;;5077105;28;20029;-78
2022/12/12 01:30:21;;;;;;;16.13;7.80;;;-0.70;99.90;;;;;;5077168;28;20021;-78
2022/12/12 01:32:47;;;;;;;14.50;7.40;;;-1.50;99.90;;;;;;5075996;28;20411;-78
2022/12/12 01:35:13;;;;;;;15.13;8.13;;;-1.50;99.90;;;;;;5076002;28;20078;-78
2022/12/12 01:37:40;;;;;;;17.63;9.05;;;-0.50;99.90;;;;;;5076899;28;20024;-78
2022/12/12 01:40:19;;;;;;;17.73;8.57;;;-0.40;99.90;;;;;;5076688;28;20384;-78
2022/12/12 01:42:45;;;;;;;16.80;9.05;;;-1.60;99.90;;;;;;5076967;28;20035;-78
2022/12/12 01:45:48;;;;;;;18.73;8.68;;;-1.10;99.90;;;;;;5092992;28;20021;-78
2022/12/12 01:48:13;;;;;;;16.45;9.07;;;-1.70;99.90;;;;;;5092257;28;20029;-78
2022/12/12 01:50:41;;;;;;;16.63;9.65;;;-1.70;99.90;;;;;;5075165;28;20074;-77
2022/12/12 01:53:07;;;;;;;20.83;9.93;;;-1.80;99.90;;;;;;5075262;28;20422;-77
2022/12/12 01:55:33;;;;;;;18.98;9.75;;;-1.80;99.90;;;;;;5075209;28;20025;-77
2022/12/12 01:57:59;;;;;;;18.70;9.40;;;-1.80;99.90;;;;;;5076842;28;20094;-77
2022/12/12 02:00:25;;;;;;;16.67;9.02;;;-1.70;99.90;;;;;;5076401;28;20392;-77
2022/12/12 02:02:52;;;;;;;19.30;10.55;;;0.70;99.90;;;;;;5091951;28;20048;-77
2022/12/12 02:05:32;;;;;;;18.27;9.93;;;0.50;99.90;;;;;;5075348;28;20024;-77
2022/12/12 02:08:00;;;;;;;17.48;9.00;;;-1.80;99.90;;;;;;5092021;28;20060;-77
2022/12/12 02:10:26;;;;;;;18.97;9.60;;;-1.40;99.90;;;;;;5074999;28;20024;-77
2022/12/12 02:13:01;;;;;;;18.98;8.95;;;-1.50;99.90;;;;;;5076345;28;20332;-77
2022/12/12 02:15:33;;;;;;;16.40;8.98;;;-1.70;99.90;;;;;;5076138;28;20526;-77
2022/12/12 02:18:18;;;;;;;18.35;9.70;;;-0.80;99.90;;;;;;5074694;28;20083;-77
2022/12/12 02:21:28;;;;;;;16.27;8.60;;;-1.70;99.90;;;;;;5076120;28;20024;-77
2022/12/12 02:24:24;;;;;;;16.58;8.40;;;-1.80;99.90;;;;;;5091871;28;20055;-77
2022/12/12 02:27:21;;;;;;;16.27;8.70;;;-1.80;99.90;;;;;;5076096;28;20025;-77
2022/12/12 02:30:05;;;;;;;15.43;8.32;;;-1.80;99.90;;;;;;5075719;28;20115;-76
2022/12/12 02:32:33;;;;;;;15.43;7.82;;;-1.70;99.90;;;;;;5074646;28;20064;-76
2022/12/12 02:35:22;;;;;;;13.52;7.97;;;-1.70;99.90;;;;;;5075355;28;20020;-76
2022/12/12 02:38:06;;;;;;;15.23;8.50;;;-1.70;99.90;;;;;;5077955;28;20464;-76
2022/12/12 02:40:47;;;;;;;15.30;8.48;;;-1.60;99.90;;;;;;5093647;28;20487;-76
2022/12/12 02:43:30;;;;;;;14.38;8.40;;;-1.60;99.90;;;;;;5092714;28;20028;-76
2022/12/12 02:46:06;;;;;;;13.73;7.25;;;-1.60;99.90;;;;;;5091967;28;20511;-76
2022/12/12 02:48:32;;;;;;;16.20;8.10;;;-1.60;99.90;;;;;;5073963;28;20173;-76
2022/12/12 02:51:00;;;;;;;13.88;7.32;;;-1.60;99.90;;;;;;5075752;28;20060;-76
2022/12/12 02:53:26;;;;;;;15.52;8.68;;;0.10;99.90;;;;;;5074228;28;20032;-76
2022/12/12 02:56:26;;;;;;;14.35;8.23;;;0.00;99.90;;;;;;5091043;28;20054;-75
2022/12/12 02:58:52;;;;;;;14.73;7.65;;;-1.60;99.90;;;;;;5067805;28;20119;-76
2022/12/12 03:01:33;;;;;;;14.75;7.28;;;-0.50;99.90;;;;;;5075410;28;20032;-76
2022/12/12 03:10:18;;;;;;;12.45;6.85;;;-1.70;99.90;;;;;;5075288;28;20063;-76
2022/12/12 03:12:59;;;;;;;15.32;7.88;;;-1.70;99.90;;;;;;5090576;28;20115;-76
2022/12/12 03:15:53;;;;;;;12.80;7.28;;;-1.70;99.90;;;;;;5091007;28;20472;-76
2022/12/12 03:18:57;;;;;;;14.18;8.00;;;-1.80;99.90;;;;;;5074667;28;20060;-75
2022/12/12 03:21:46;;;;;;;14.18;8.00;;;-1.80;99.90;;;;;;5075221;28;20025;-75
2022/12/12 03:24:24;;;;;;;12.52;7.35;;;-1.80;99.90;;;;;;5067621;28;20044;-75
2022/12/12 03:26:53;;;;;;;17.33;8.38;;;-1.90;99.90;;;;;;5090569;28;20131;-75
2022/12/12 03:29:33;;;;;;;15.95;8.57;;;-1.90;99.90;;;;;;5074862;28;20033;-75
2022/12/12 03:32:05;;;;;;;14.93;6.68;;;-1.90;99.90;;;;;;5074601;28;20036;-76
2022/12/12 03:34:46;;;;;;;13.77;6.97;;;-1.90;99.90;;;;;;5074958;28;20024;-76
2022/12/12 03:37:19;;;;;;;14.65;7.60;;;-1.90;99.90;;;;;;5090780;28;20021;-75
2022/12/12 03:40:20;;;;;;;13.10;6.95;;;-1.90;99.90;;;;;;5073838;28;20110;-75
2022/12/12 03:42:56;;;;;;;14.48;8.20;;;-1.90;99.90;;;;;;5072658;28;20040;-75
2022/12/12 03:45:31;;;;;;;13.38;7.55;;;-1.50;99.90;;;;;;5074726;28;20029;-76
2022/12/12 03:48:28;;;;;;;11.75;7.05;;;-1.80;99.90;;;;;;5073295;28;20071;-76
2022/12/12 03:51:05;;;;;;;13.63;7.07;;;-1.70;99.90;;;;;;5065592;28;20040;-76
2022/12/12 03:54:09;;;;;;;14.03;7.13;;;-1.80;99.90;;;;;;5090191;28;20027;-75
2022/12/12 03:56:47;;;;;;;13.40;6.60;;;-1.80;99.90;;;;;;5050299;28;20066;-75
2022/12/12 03:59:29;;;;;;;13.20;7.05;;;-1.80;99.90;;;;;;5074058;28;20052;-75
2022/12/12 04:02:00;;;;;;;13.05;7.28;;;-1.70;99.90;;;;;;5073377;28;20077;-75
2022/12/12 04:04:45;;;;;;;12.82;7.13;;;-1.70;99.90;;;;;;5090252;28;20028;-75
2022/12/12 04:07:37;;;;;;;13.90;7.07;;;-1.70;99.90;;;;;;5074860;28;20026;-75
2022/12/12 04:13:15;;;;;;;15.90;6.88;;;-1.10;99.90;;;;;;5114414;28;20101;-75
2022/12/12 04:15:47;;;;;;;13.60;7.60;;;-1.70;99.90;;;;;;5096905;28;20097;-75
2022/12/12 04:18:36;;;;;;;12.60;6.68;;;-1.70;99.90;;;;;;5096364;28;20479;-75
2022/12/12 04:24:41;;;;;;;12.98;7.88;;;-1.70;99.90;;;;;;5069571;28;20035;-75
2022/12/12 04:27:10;;;;;;;12.95;7.70;;;-1.70;99.90;;;;;;5096473;28;20028;-75
2022/12/12 04:29:47;;;;;;;14.35;7.68;;;-1.60;99.90;;;;;;5098321;28;20094;-76
2022/12/12 04:32:22;;;;;;;17.02;8.52;;;-1.70;99.90;;;;;;5114558;28;20032;-75
2022/12/12 04:35:02;;;;;;;16.42;8.88;;;-0.90;99.90;;;;;;5112372;28;20384;-75
2022/12/12 04:37:33;;;;;;;15.60;8.32;;;-1.80;99.90;;;;;;5093741;28;20527;-75
2022/12/12 04:40:04;;;;;;;17.52;9.25;;;-1.80;99.90;;;;;;5093762;28;20076;-75
2022/12/12 04:42:34;;;;;;;16.27;8.93;;;-1.80;99.90;;;;;;5093786;28;20463;-75
2022/12/12 04:45:15;;;;;;;16.25;9.05;;;-1.90;99.90;;;;;;5111686;28;20541;-75
2022/12/12 04:47:44;;;;;;;16.13;8.85;;;-1.90;99.90;;;;;;5094137;28;20044;-75
2022/12/12 04:50:11;;;;;;;16.98;8.95;;;-0.70;99.90;;;;;;5111351;28;20457;-75
2022/12/12 04:52:39;;;;;;;19.98;9.35;;;-1.60;99.90;;;;;;5093556;28;20418;-75
2022/12/12 04:55:14;;;;;;;20.40;9.15;;;-0.40;99.90;;;;;;5111794;28;20503;-75
2022/12/12 04:57:46;;;;;;;18.10;9.32;;;-0.80;99.90;;;;;;5093733;28;20032;-75
2022/12/12 05:00:13;;;;;;;17.75;9.30;;;-1.90;99.90;;;;;;5093162;28;20027;-75
2022/12/12 05:03:14;;;;;;;19.17;9.75;;;-1.90;99.90;;;;;;5111568;28;20024;-75
2022/12/12 05:05:46;;;;;;;17.85;8.93;;;-1.90;99.90;;;;;;5111806;28;20486;-75
2022/12/12 05:08:34;;;;;;;18.40;8.52;;;-1.50;99.90;;;;;;5108456;28;20537;-75
2022/12/12 05:11:02;;;;;;;20.30;9.05;;;-1.00;99.90;;;;;;5090071;28;20044;-75
2022/12/12 05:13:30;;;;;;;19.05;9.10;;;-1.20;99.90;;;;;;5072677;28;20025;-74
2022/12/12 05:15:59;;;;;;;17.75;9.25;;;-1.90;99.90;;;;;;5073104;28;20020;-76
2022/12/12 05:18:25;;;;;;;17.95;9.32;;;-1.50;99.90;;;;;;5073009;28;20028;-77
2022/12/12 05:20:50;;;;;;;17.40;9.75;;;-1.10;99.90;;;;;;5064151;28;20537;-76
2022/12/12 05:23:16;;;;;;;23.70;9.18;;;-0.80;99.90;;;;;;5077028;28;20024;-76
2022/12/12 05:25:42;;;;;;;16.50;8.50;;;0.50;99.90;;;;;;5077596;28;20415;-75
2022/12/12 05:28:07;;;;;;;14.40;8.93;;;0.30;99.90;;;;;;5058775;28;20380;-75
2022/12/12 05:30:33;;;;;;;18.23;9.30;;;-0.30;99.90;;;;;;5059189;28;20028;-77
2022/12/12 05:32:59;;;;;;;16.50;8.63;;;-1.40;99.90;;;;;;5077222;28;20546;-76
2022/12/12 05:35:25;;;;;;;18.17;8.93;;;-1.60;99.90;;;;;;5059125;28;20020;-75
2022/12/12 05:37:51;;;;;;;19.58;10.23;;;-1.50;99.90;;;;;;5059537;28;20024;-75
2022/12/12 05:40:17;;;;;;;23.92;8.93;;;-0.90;99.90;;;;;;5060826;28;20158;-76
2022/12/12 05:42:43;;;;;;;19.65;9.98;;;-2.10;99.90;;;;;;5078069;28;20077;-75
2022/12/12 05:45:10;;;;;;;21.42;9.20;;;-0.50;99.90;;;;;;5060057;28;20426;-75
2022/12/12 05:47:35;;;;;;;18.23;9.13;;;-2.00;99.90;;;;;;5076298;28;20027;-75
2022/12/12 05:50:01;;;;;;;17.30;9.55;;;-0.90;99.90;;;;;;5058996;28;20455;-74
2022/12/12 05:52:27;;;;;;;18.13;9.90;;;-1.30;99.90;;;;;;5058663;28;20037;-74
2022/12/12 05:54:52;;;;;;;18.05;9.13;;;-1.80;99.90;;;;;;5058618;28;20024;-75
2022/12/12 05:57:18;;;;;;;21.30;8.70;;;-2.00;99.90;;;;;;5058786;28;20116;-75
2022/12/12 05:59:45;;;;;;;18.58;9.07;;;-1.30;99.90;;;;;;5058395;28;20526;-75
2022/12/12 06:02:12;;;;;;;19.45;8.63;;;-1.90;99.90;;;;;;5076379;28;20048;-74
2022/12/12 06:04:38;;;;;;;19.73;8.45;;;-1.90;99.90;;;;;;5058761;28;20095;-76
2022/12/12 06:07:04;;;;;;;19.00;9.10;;;-1.90;99.90;;;;;;5076441;28;20059;-75
2022/12/12 06:09:30;;;;;;;19.45;9.38;;;-1.90;99.90;;;;;;5075472;28;20048;-77
2022/12/12 06:11:55;;;;;;;19.92;9.65;;;0.20;99.90;;;;;;5076956;28;20107;-75
2022/12/12 06:14:21;;;;;;;19.48;9.05;;;-1.90;99.90;;;;;;5076043;28;20106;-75
2022/12/12 06:16:47;;;;;;;21.67;10.00;;;-1.80;99.90;;;;;;5058830;28;20071;-78
2022/12/12 06:19:12;;;;;;;21.55;10.43;;;-0.30;99.90;;;;;;5058384;28;20039;-74
2022/12/12 06:21:38;;;;;;;19.95;10.57;;;0.00;99.90;;;;;;5058790;28;20029;-75
2022/12/12 06:24:07;;;;;;;22.35;11.05;;;-1.30;99.90;;;;;;5058278;28;20031;-76
2022/12/12 06:26:33;;;;;;;22.77;11.57;;;-1.80;99.90;;;;;;5058099;28;20111;-75
2022/12/12 06:28:58;;;;;;;19.40;10.15;;;-0.90;99.90;;;;;;5075913;28;20119;-75
2022/12/12 06:31:24;;;;;;;21.05;9.20;;;-1.50;99.90;;;;;;5057469;28;20032;-74
2022/12/12 06:33:50;;;;;;;16.23;8.82;;;-1.20;99.90;;;;;;5075777;28;20025;-74
2022/12/12 06:36:23;;;;;;;17.13;8.07;;;-1.70;99.90;;;;;;5075469;28;20107;-74
2022/12/12 06:38:54;;;;;;;17.05;8.82;;;-1.00;99.90;;;;;;5057509;28;20035;-75
2022/12/12 06:41:20;;;;;;;19.30;8.43;;;-2.20;99.90;;;;;;5075830;28;20035;-75
2022/12/12 06:43:46;;;;;;;13.88;7.05;;;-1.90;99.90;;;;;;5075563;28;20376;-73
2022/12/12 06:46:16;;;;;;;14.57;7.25;;;-1.50;99.90;;;;;;5075493;28;20103;-74
2022/12/12 06:48:41;;;;;;;14.90;8.48;;;-1.90;99.90;;;;;;5075378;28;20036;-65
2022/12/12 06:51:10;;;;;;;14.60;7.88;;;-2.40;99.90;;;;;;5057320;28;20427;-74
2022/12/12 06:53:36;;;;;;;14.93;7.55;;;-2.10;99.90;;;;;;5075392;28;20021;-75
2022/12/12 06:56:11;;;;;;;16.65;7.38;;;-2.30;99.90;;;;;;5075423;28;20463;-74
2022/12/12 06:58:37;;;;;;;16.17;7.72;;;-2.40;99.90;;;;;;5075016;28;20464;-76
2022/12/12 07:01:03;;;;;;;16.13;7.85;;;-1.60;99.90;;;;;;5057015;28;20115;-76
2022/12/12 07:03:29;;;;;;;14.43;7.40;;;-2.40;99.90;;;;;;5074997;28;20032;-74
2022/12/12 07:05:55;;;;;;;19.13;7.63;;;-2.30;99.90;;;;;;5074388;28;20036;-75
2022/12/12 07:08:20;;;;;;;16.38;7.60;;;-0.80;99.90;;;;;;5061755;28;20044;-75
2022/12/12 07:10:46;;;;;;;15.43;7.57;;;-1.10;99.90;;;;;;5095218;28;20527;-74
2022/12/12 07:13:12;;;;;;;16.25;7.10;;;-0.10;99.90;;;;;;5094583;28;20028;-76
2022/12/12 07:15:42;;;;;;;17.30;7.22;;;-2.50;99.90;;;;;;5094644;28;20498;-58
2022/12/12 07:18:08;;;;;;;18.55;7.85;;;-2.40;99.90;;;;;;5094909;28;20479;-76
2022/12/12 07:20:33;;;;;;;18.20;8.20;;;-2.30;99.90;;;;;;5093610;28;20028;-76
2022/12/12 07:22:59;;;;;;;17.63;8.63;;;-1.20;99.90;;;;;;5094941;28;20113;-75
2022/12/12 07:25:24;;;;;;;15.25;7.78;;;-2.40;99.90;;;;;;5093655;28;20101;-76
2022/12/12 07:27:50;;;;;;;17.13;8.38;;;-2.40;99.90;;;;;;5095187;28;20052;-77
2022/12/12 07:30:16;;;;;;;16.50;8.13;;;-2.00;99.90;;;;;;5094982;28;20082;-74
2022/12/12 07:32:41;;;;;;;17.38;7.72;;;-2.40;99.90;;;;;;5093053;28;20028;-75
2022/12/12 07:35:07;;;;;;;16.55;8.00;;;-1.30;99.90;;;;;;5093506;28;20032;-75
2022/12/12 07:37:33;;;;;;;17.98;8.45;;;-2.30;99.90;;;;;;5092803;28;20028;-64
2022/12/12 07:39:59;;;;;;;15.10;7.80;;;-2.30;99.90;;;;;;5093024;28;20066;-65
2022/12/12 07:42:24;;;;;;;13.07;6.88;;;-2.20;99.90;;;;;;5094635;28;20391;-76
2022/12/12 07:44:50;;;;;;;16.80;7.68;;;-2.20;99.90;;;;;;5094513;28;20024;-77
2022/12/12 07:47:16;;;;;;;15.27;7.78;;;-1.10;99.90;;;;;;5094657;28;20031;-75
2022/12/12 07:49:41;;;;;;;17.20;8.20;;;-1.80;99.90;;;;;;5093689;28;20384;-76
2022/12/12 07:52:07;;;;;;;14.15;8.02;;;-1.10;99.90;;;;;;5094476;28;20027;-77
2022/12/12 07:54:32;;;;;;;18.52;9.02;;;-0.70;99.90;;;;;;5095154;28;20456;-76
2022/12/12 07:56:59;;;;;;;17.27;8.88;;;-1.00;99.90;;;;;;5094291;28;20028;-78
2022/12/12 07:59:25;;;;;;;16.50;8.77;;;-0.70;99.90;;;;;;5093818;28;20426;-77
2022/12/12 08:01:50;;;;;;;20.38;10.07;;;-2.10;99.90;;;;;;5094895;28;20031;-75
2022/12/12 08:04:16;;;;;;;17.52;9.30;;;-0.70;99.90;;;;;;5094777;28;20106;-75
2022/12/12 08:06:41;;;;;;;20.10;10.27;;;-2.00;99.90;;;;;;5094638;28;20024;-75
2022/12/12 08:09:07;;;;;;;19.02;10.23;;;-1.20;99.90;;;;;;5083900;28;20045;-73
2022/12/12 08:11:33;;;;;;;23.83;11.35;;;-1.90;99.90;;;;;;5056143;28;20452;-75
2022/12/12 08:13:59;;;;;;;28.05;11.05;;;-0.10;99.90;;;;;;5074840;28;20055;-73
2022/12/12 08:16:26;;;;;;;25.88;12.32;;;-1.70;99.90;;;;;;5074649;28;20031;-76
2022/12/12 08:18:54;;;;;;;36.70;12.02;;;-1.70;99.90;;;;;;5074366;28;20032;-75
2022/12/12 08:21:19;;;;;;;33.22;12.20;;;-0.30;99.90;;;;;;5074493;28;20033;-75
2022/12/12 08:23:45;;;;;;;26.92;11.75;;;-0.60;99.90;;;;;;5074544;28;20362;-76
2022/12/12 08:26:14;;;;;;;28.25;11.25;;;-1.00;99.90;;;;;;5074866;28;20029;-75
2022/12/12 08:28:40;;;;;;;32.95;11.35;;;-0.30;99.90;;;;;;5073949;28;20400;-76
2022/12/12 08:31:07;;;;;;;25.88;11.13;;;-0.40;99.90;;;;;;5056406;28;20135;-76
2022/12/12 08:33:32;;;;;;;26.08;10.30;;;-0.20;99.90;;;;;;5074387;28;20016;-75
2022/12/12 08:35:58;;;;;;;26.48;10.60;;;0.10;99.90;;;;;;5073827;28;20048;-72
2022/12/12 08:38:24;;;;;;;25.60;10.98;;;-0.50;99.90;;;;;;5056329;28;20029;-75
2022/12/12 08:40:50;;;;;;;32.33;12.32;;;0.20;99.90;;;;;;5074432;28;20033;-75
2022/12/12 08:43:16;;;;;;;22.67;10.85;;;0.30;99.90;;;;;;5074163;28;20353;-75
2022/12/12 08:45:41;;;;;;;24.52;10.77;;;-0.40;99.90;;;;;;5056047;28;20388;-75
2022/12/12 08:48:09;;;;;;;19.27;10.85;;;-1.30;99.90;;;;;;5055866;28;20054;-75
2022/12/12 08:50:35;;;;;;;30.80;12.05;;;-1.30;99.90;;;;;;5055732;28;20055;-75
2022/12/12 08:53:00;;;;;;;17.95;10.32;;;-1.20;99.90;;;;;;5056235;28;20024;-75
2022/12/12 08:55:26;;;;;;;29.77;11.80;;;-1.30;99.90;;;;;;5056959;28;20025;-76
2022/12/12 08:57:52;;;;;;;20.55;10.77;;;-1.30;99.90;;;;;;5059528;28;20070;-75
2022/12/12 09:00:18;;;;;;;25.17;11.32;;;-1.20;99.90;;;;;;5059369;28;20052;-75
2022/12/12 09:02:43;;;;;;;26.20;11.65;;;-1.10;99.90;;;;;;5059549;28;20082;-75
2022/12/12 09:05:09;;;;;;;21.55;10.93;;;-0.20;99.90;;;;;;5060315;28;20036;-75
2022/12/12 09:07:36;;;;;;;21.48;10.60;;;-1.20;99.90;;;;;;5078904;28;20029;-75
2022/12/12 09:10:03;;;;;;;20.65;10.02;;;-0.90;99.90;;;;;;5098212;28;20059;-75
2022/12/12 09:12:29;;;;;;;18.83;10.32;;;-1.10;99.90;;;;;;5102383;28;20035;-75
2022/12/12 09:14:55;;;;;;;21.75;10.48;;;0.90;99.90;;;;;;5101311;28;20024;-75
2022/12/12 09:17:21;;;;;;;21.33;10.68;;;-0.20;99.90;;;;;;5100953;28;20020;-75
2022/12/12 09:19:46;;;;;;;21.17;9.85;;;0.70;99.90;;;;;;5100966;28;20036;-75
2022/12/12 09:22:12;;;;;;;19.02;10.70;;;-0.30;99.90;;;;;;5101923;28;20054;-75
2022/12/12 09:24:37;;;;;;;19.10;10.15;;;-0.20;99.90;;;;;;5100245;28;20026;-75
2022/12/12 09:27:03;;;;;;;18.63;10.77;;;0.40;99.90;;;;;;5098223;28;20153;-75
2022/12/12 09:29:29;;;;;;;17.58;9.70;;;0.00;99.90;;;;;;5098548;28;20490;-75
2022/12/12 09:31:55;;;;;;;18.33;9.93;;;-0.10;99.90;;;;;;5098514;28;20020;-75
2022/12/12 09:34:20;;;;;;;15.00;8.77;;;1.00;99.90;;;;;;5097037;28;20032;-76
2022/12/12 09:36:46;;;;;;;22.20;9.20;;;0.10;99.90;;;;;;5097948;28;20110;-75
2022/12/12 09:39:12;;;;;;;17.92;9.27;;;0.30;99.90;;;;;;5096401;28;20035;-75
2022/12/12 09:41:37;;;;;;;18.95;8.85;;;0.40;99.90;;;;;;5096712;28;20025;-75
2022/12/12 09:44:14;;;;;;;19.20;9.57;;;0.50;99.90;;;;;;5095868;28;20057;-76
2022/12/12 09:46:50;;;;;;;13.38;8.20;;;0.60;99.90;;;;;;5095845;28;20024;-76
2022/12/12 09:49:24;;;;;;;16.25;8.52;;;0.20;99.90;;;;;;5096758;28;20472;-76
2022/12/12 09:51:51;;;;;;;19.33;9.70;;;0.00;99.90;;;;;;5095597;28;20028;-76
2022/12/12 09:54:22;;;;;;;20.08;9.13;;;-0.10;99.90;;;;;;5095535;28;20030;-76
2022/12/12 09:56:50;;;;;;;15.48;8.55;;;-0.10;99.90;;;;;;5095219;28;20028;-76
2022/12/12 09:59:36;;;;;;;17.35;9.07;;;-0.10;99.90;;;;;;5095175;28;20027;-77
2022/12/12 10:02:37;;;;;;;18.35;8.77;;;-0.10;99.90;;;;;;5095078;28;20032;-76
2022/12/12 10:05:21;;;;;;;23.60;10.27;;;0.00;99.90;;;;;;5063779;28;20043;-76
2022/12/12 10:08:11;;;;;;;16.52;8.70;;;0.00;99.90;;;;;;5095267;28;20024;-75
2022/12/12 10:10:43;;;;;;;17.38;8.95;;;0.00;99.90;;;;;;5096681;28;20036;-76
2022/12/12 10:13:22;;;;;;;18.25;8.82;;;-0.10;99.90;;;;;;5095170;28;20163;-76
2022/12/12 10:15:55;;;;;;;17.77;8.88;;;-0.10;99.90;;;;;;5097023;28;20028;-76
2022/12/12 10:18:31;;;;;;;17.65;8.38;;;-0.10;99.90;;;;;;5096213;28;20028;-76
2022/12/12 10:21:01;;;;;;;16.27;7.80;;;-0.20;99.90;;;;;;5096174;28;20024;-75
2022/12/12 10:23:33;;;;;;;15.85;8.15;;;-0.30;99.90;;;;;;5094805;28;20107;-75
2022/12/12 10:26:03;;;;;;;19.77;9.38;;;-0.40;99.90;;;;;;5094971;28;20109;-75
2022/12/12 10:28:31;;;;;;;17.90;8.20;;;-0.20;99.90;;;;;;5096047;28;20039;-75
2022/12/12 10:31:15;;;;;;;15.80;8.80;;;-0.70;99.90;;;;;;5095108;28;20380;-75
2022/12/12 10:33:58;;;;;;;17.92;7.97;;;-0.60;99.90;;;;;;5096321;28;20470;-75
2022/12/12 10:36:55;;;;;;;17.05;8.32;;;-0.30;99.90;;;;;;5096198;28;20024;-75
2022/12/12 10:39:46;;;;;;;17.58;8.60;;;-0.50;99.90;;;;;;5095453;28;20032;-75
2022/12/12 10:42:11;;;;;;;16.55;8.32;;;-0.50;99.90;;;;;;5069899;28;20028;-75
2022/12/12 10:45:01;;;;;;;19.35;9.27;;;-0.50;99.90;;;;;;5095755;28;20421;-75
2022/12/12 10:47:27;;;;;;;20.38;9.43;;;-0.50;99.90;;;;;;5095869;28;20015;-75
2022/12/12 10:50:21;;;;;;;14.82;7.88;;;-0.30;99.90;;;;;;5094253;28;20127;-75
2022/12/12 10:52:48;;;;;;;19.02;8.75;;;-0.60;99.90;;;;;;5095992;28;20028;-75
2022/12/12 10:55:29;;;;;;;18.08;8.38;;;-0.60;99.90;;;;;;5094103;28;20024;-75
2022/12/12 10:58:03;;;;;;;16.02;8.05;;;-0.50;99.90;;;;;;5095514;28;20062;-75
2022/12/12 11:00:38;;;;;;;16.48;8.05;;;-0.60;99.90;;;;;;5093927;28;20452;-75
2022/12/12 11:03:11;;;;;;;15.35;8.32;;;-0.50;99.90;;;;;;5094312;28;20023;-75
2022/12/12 11:05:39;;;;;;;18.55;9.40;;;-0.40;99.90;;;;;;5093959;28;20024;-75
2022/12/12 11:08:30;;;;;;;15.43;8.27;;;-0.10;99.90;;;;;;5092197;28;20027;-75
2022/12/12 11:11:04;;;;;;;17.30;9.40;;;-0.20;99.90;;;;;;5056620;28;20035;-75
2022/12/12 11:13:30;;;;;;;17.35;8.77;;;-0.20;99.90;;;;;;5057278;28;20550;-75
2022/12/12 11:16:06;;;;;;;16.95;8.73;;;-0.20;99.90;;;;;;5057179;28;20043;-75
2022/12/12 11:18:32;;;;;;;15.73;8.07;;;0.70;99.90;;;;;;5056301;28;20412;-75
2022/12/12 11:21:10;;;;;;;16.17;8.77;;;-0.10;99.90;;;;;;5056596;28;20032;-75
2022/12/12 11:23:46;;;;;;;17.20;8.63;;;-0.30;99.90;;;;;;5073948;28;20418;-75
2022/12/12 11:26:15;;;;;;;21.38;9.23;;;-0.30;99.90;;;;;;5056553;28;20024;-75
2022/12/12 11:28:45;;;;;;;18.35;8.40;;;-0.40;99.90;;;;;;5056776;28;20028;-75
2022/12/12 11:31:17;;;;;;;19.85;9.73;;;0.20;99.90;;;;;;5074285;28;20025;-75
2022/12/12 11:33:47;;;;;;;16.40;9.30;;;-0.40;99.90;;;;;;5056157;28;20032;-74
2022/12/12 11:36:18;;;;;;;16.55;9.02;;;-0.70;99.90;;;;;;5056282;28;20052;-75
2022/12/12 11:38:56;;;;;;;16.40;8.95;;;-0.50;99.90;;;;;;5074213;28;20075;-75
2022/12/12 11:41:22;;;;;;;17.15;9.77;;;-0.50;99.90;;;;;;5056277;28;20028;-75
2022/12/12 11:43:48;;;;;;;21.42;9.20;;;-0.50;99.90;;;;;;5056526;28;20102;-75
2022/12/12 11:46:14;;;;;;;14.75;8.60;;;-0.60;99.90;;;;;;5074957;28;20033;-74
2022/12/12 11:48:45;;;;;;;23.05;9.18;;;-0.50;99.90;;;;;;5074545;28;20464;-75
2022/12/12 11:51:11;;;;;;;19.17;9.02;;;-0.40;99.90;;;;;;5074096;28;20407;-74
2022/12/12 11:53:40;;;;;;;19.48;9.32;;;-0.40;99.90;;;;;;5073625;28;20024;-75
2022/12/12 11:56:31;;;;;;;19.25;8.85;;;-0.50;99.90;;;;;;5055902;28;20021;-74
2022/12/12 11:59:36;;;;;;;16.73;8.32;;;-0.40;99.90;;;;;;5055964;28;20033;-74
2022/12/12 12:02:04;;;;;;;16.25;8.18;;;-0.50;99.90;;;;;;5074159;28;20484;-74
2022/12/12 12:05:02;;;;;;;18.88;9.20;;;-0.50;99.90;;;;;;5074172;28;20036;-74
2022/12/12 12:07:45;;;;;;;17.20;8.05;;;-0.50;99.90;;;;;;5022080;28;20028;-74
2022/12/12 12:10:23;;;;;;;17.45;9.52;;;-0.60;99.90;;;;;;5091507;28;20067;-75
2022/12/12 12:13:07;;;;;;;17.83;9.48;;;-0.60;99.90;;;;;;5093229;28;20529;-75
2022/12/12 12:15:42;;;;;;;20.38;10.05;;;-0.80;99.90;;;;;;5093828;28;20388;-74
2022/12/12 12:18:16;;;;;;;19.40;9.57;;;-0.90;99.90;;;;;;5092960;28;20361;-75
2022/12/12 12:21:09;;;;;;;25.02;10.60;;;-1.00;99.90;;;;;;5092217;28;20051;-75
2022/12/12 12:24:08;;;;;;;23.60;10.38;;;-1.00;99.90;;;;;;5094365;28;20020;-74
2022/12/12 12:26:44;;;;;;;20.85;9.60;;;-1.10;99.90;;;;;;5093230;28;20073;-75
2022/12/12 12:29:47;;;;;;;21.67;10.05;;;-0.70;99.90;;;;;;5094325;28;20032;-74
2022/12/12 12:32:40;;;;;;;19.20;9.73;;;-1.00;99.90;;;;;;5097040;28;20027;-75
2022/12/12 12:35:12;;;;;;;24.65;10.20;;;-1.20;99.90;;;;;;5097130;28;20077;-74
2022/12/12 12:38:05;;;;;;;20.67;10.05;;;-1.20;99.90;;;;;;5097231;28;20023;-74
2022/12/12 12:41:01;;;;;;;23.00;10.13;;;-1.20;99.90;;;;;;5098277;28;20444;-74
2022/12/12 12:43:26;;;;;;;21.95;10.38;;;-1.20;99.90;;;;;;5098297;28;20024;-74
2022/12/12 12:45:56;;;;;;;27.38;10.77;;;-1.20;99.90;;;;;;5098192;28;20379;-74
2022/12/12 12:48:32;;;;;;;22.98;11.57;;;-1.20;99.90;;;;;;5097903;28;20036;-75
2022/12/12 12:51:23;;;;;;;24.95;10.65;;;-1.20;99.90;;;;;;5098184;28;20069;-75
2022/12/12 12:53:54;;;;;;;21.13;10.82;;;-1.20;99.90;;;;;;5097490;28;20024;-74
2022/12/12 12:56:27;;;;;;;20.52;11.00;;;-1.20;99.90;;;;;;5097991;28;20454;-74
2022/12/12 12:58:59;;;;;;;26.30;11.45;;;-1.10;99.90;;;;;;5097810;28;20039;-74
2022/12/12 13:01:44;;;;;;;20.98;10.40;;;-1.00;99.90;;;;;;5097892;28;20082;-68
2022/12/12 13:04:09;;;;;;;19.75;10.43;;;-1.10;99.90;;;;;;5098112;28;20090;-75
2022/12/12 13:06:55;;;;;;;21.52;10.65;;;-1.00;99.90;;;;;;5096687;28;20118;-75
2022/12/12 13:09:26;;;;;;;27.45;10.82;;;-1.10;99.90;;;;;;5096593;28;20052;-76
2022/12/12 13:12:19;;;;;;;26.95;11.90;;;-1.10;99.90;;;;;;5097833;28;20031;-76
2022/12/12 13:14:53;;;;;;;26.70;11.90;;;-1.20;99.90;;;;;;5056359;28;20082;-75